Time;durP1;ratioP1;P1;durP2;ratioP2;P2;SDS_P1;SDS_P2;PMS_P1;PMS_P2;Temp;Humidity;BMP_temperature;BMP_pressure;BME280_temperature;BME280_humidity;BME280_pressure;Samples;Min_cycle;Max_cycle;Signal;HPM_P1;HPM_P2
2023/05/17 00:00:00;;;;;;;6.57;2.70;;;18.50;99.90;;;;;;5006659;28;20207;-86
2023/05/17 00:02:27;;;;;;;10.57;3.00;;;18.50;99.90;;;;;;5000633;28;20390;-83
2023/05/17 00:04:55;;;;;;;7.87;3.07;;;18.50;99.90;;;;;;4971985;28;20212;-83
2023/05/17 00:07:21;;;;;;;6.17;2.60;;;18.60;99.90;;;;;;4981032;28;20268;-79
2023/05/17 00:09:49;;;;;;;7.23;2.50;;;18.50;99.90;;;;;;4978867;28;20232;-81
2023/05/17 00:12:16;;;;;;;6.03;2.60;;;18.40;99.90;;;;;;4993570;28;20707;-79
2023/05/17 00:14:43;;;;;;;8.63;2.80;;;18.20;99.90;;;;;;4997431;28;20201;-81
2023/05/17 00:17:10;;;;;;;8.43;2.60;;;18.10;99.90;;;;;;4997398;28;20195;-78
2023/05/17 00:19:38;;;;;;;6.60;3.03;;;18.00;99.90;;;;;;4984761;28;20287;-81
2023/05/17 00:22:12;;;;;;;10.37;2.50;;;17.90;99.90;;;;;;4982260;28;20208;-81
2023/05/17 00:24:39;;;;;;;10.47;2.83;;;17.90;99.90;;;;;;4981314;28;20721;-81
2023/05/17 00:27:09;;;;;;;8.00;2.97;;;17.80;99.90;;;;;;4983403;28;20200;-81
2023/05/17 00:29:35;;;;;;;5.83;2.20;;;17.70;99.90;;;;;;4983928;28;20267;-81
2023/05/17 00:32:01;;;;;;;8.40;2.50;;;17.60;99.90;;;;;;5001164;28;20196;-88
2023/05/17 00:34:30;;;;;;;7.10;2.73;;;17.70;99.90;;;;;;4989452;28;20189;-88
2023/05/17 00:36:57;;;;;;;7.33;2.50;;;17.70;99.90;;;;;;4991593;28;20247;-89
2023/05/17 00:39:23;;;;;;;6.40;2.90;;;17.70;99.90;;;;;;5005235;28;20201;-89
2023/05/17 00:41:49;;;;;;;5.67;2.80;;;17.70;99.90;;;;;;4971152;28;20224;-87
2023/05/17 00:44:16;;;;;;;6.50;2.90;;;17.70;99.90;;;;;;4990399;28;20249;-90
2023/05/17 00:46:42;;;;;;;5.50;2.33;;;17.70;99.90;;;;;;5004451;28;20244;-88
2023/05/17 00:49:11;;;;;;;6.60;2.90;;;17.60;99.90;;;;;;5005269;28;20794;-90
2023/05/17 00:51:41;;;;;;;7.73;3.20;;;17.70;99.90;;;;;;4987016;28;20270;-82
2023/05/17 00:54:09;;;;;;;6.27;3.00;;;17.60;99.90;;;;;;5001605;28;20207;-89
2023/05/17 00:56:37;;;;;;;6.90;3.10;;;17.60;99.90;;;;;;4996898;28;20734;-82
2023/05/17 00:59:11;;;;;;;10.77;2.90;;;17.60;99.90;;;;;;4962831;28;20200;-81
2023/05/17 01:01:41;;;;;;;5.73;2.87;;;17.70;99.90;;;;;;4989200;28;20886;-89
2023/05/17 01:04:09;;;;;;;7.03;2.73;;;17.70;99.90;;;;;;4968766;28;20486;-88
2023/05/17 01:06:40;;;;;;;4.53;2.77;;;17.80;99.90;;;;;;5002652;28;20199;-82
2023/05/17 01:09:13;;;;;;;6.30;2.70;;;17.80;99.90;;;;;;4993967;28;20656;-80
2023/05/17 01:12:04;;;;;;;6.93;3.10;;;17.80;99.90;;;;;;4999577;28;20187;-79
2023/05/17 01:14:57;;;;;;;8.00;3.10;;;17.90;99.90;;;;;;5005574;28;20199;-85
2023/05/17 01:18:01;;;;;;;6.43;2.40;;;17.90;99.90;;;;;;4981959;28;20227;-79
2023/05/17 01:20:42;;;;;;;12.63;3.07;;;17.80;99.90;;;;;;4982874;28;20199;-81
2023/05/17 01:24:03;;;;;;;11.13;3.60;;;17.80;99.90;;;;;;4977618;28;20198;-81
2023/05/17 01:26:43;;;;;;;5.00;2.77;;;17.70;99.90;;;;;;4977943;28;20296;-88
2023/05/17 01:29:11;;;;;;;8.43;2.70;;;17.70;99.90;;;;;;5009468;28;20188;-89
2023/05/17 01:31:43;;;;;;;6.07;2.70;;;17.60;99.90;;;;;;4970599;28;20665;-80
2023/05/17 01:34:13;;;;;;;6.77;2.77;;;17.60;99.90;;;;;;4994952;28;20282;-79
2023/05/17 01:36:41;;;;;;;8.40;3.17;;;17.60;99.90;;;;;;4996848;28;20844;-79
2023/05/17 01:39:08;;;;;;;5.73;2.53;;;17.60;99.90;;;;;;4980474;28;20214;-80
2023/05/17 01:41:43;;;;;;;6.90;2.30;;;17.50;99.90;;;;;;4988614;28;20194;-88
2023/05/17 01:44:30;;;;;;;7.83;3.23;;;17.50;99.90;;;;;;4971235;28;20223;-86
2023/05/17 01:47:19;;;;;;;5.77;2.40;;;17.40;99.90;;;;;;4972226;28;20280;-88
2023/05/17 01:49:53;;;;;;;7.67;2.97;;;17.50;99.90;;;;;;4980827;28;20208;-80
2023/05/17 01:53:05;;;;;;;6.03;2.53;;;17.40;99.90;;;;;;4982860;28;20177;-79
2023/05/17 01:56:03;;;;;;;6.97;2.60;;;17.30;99.90;;;;;;4918929;29;20332;-80
2023/05/17 01:58:45;;;;;;;5.63;3.20;;;17.30;99.90;;;;;;4982684;28;20192;-80
2023/05/17 02:01:18;;;;;;;5.73;2.73;;;17.30;99.90;;;;;;5001278;28;20285;-80
2023/05/17 02:03:52;;;;;;;7.10;2.80;;;17.20;99.90;;;;;;4987298;28;20227;-82
2023/05/17 02:06:27;;;;;;;7.47;2.73;;;17.10;99.90;;;;;;4992609;28;20189;-81
2023/05/17 02:08:57;;;;;;;7.13;2.60;;;17.00;99.90;;;;;;4985234;28;20813;-81
2023/05/17 02:11:25;;;;;;;7.13;2.87;;;17.10;99.90;;;;;;5005617;28;20266;-80
2023/05/17 02:13:53;;;;;;;9.83;3.10;;;17.10;99.90;;;;;;4988144;28;20656;-82
2023/05/17 02:16:22;;;;;;;7.63;2.93;;;17.10;99.90;;;;;;4987674;28;20725;-80
2023/05/17 02:18:49;;;;;;;8.63;2.83;;;17.20;99.90;;;;;;4956719;28;20196;-80
2023/05/17 02:21:17;;;;;;;4.50;2.93;;;17.30;99.90;;;;;;4971290;28;20200;-80
2023/05/17 02:23:44;;;;;;;6.27;2.73;;;17.30;99.90;;;;;;4986025;28;20555;-80
2023/05/17 02:26:11;;;;;;;5.50;2.87;;;17.30;99.90;;;;;;4999972;28;20697;-88
2023/05/17 02:28:40;;;;;;;5.53;2.63;;;17.30;99.90;;;;;;4987393;28;20193;-80
2023/05/17 02:31:11;;;;;;;7.43;2.80;;;17.20;99.90;;;;;;4975298;28;20201;-83
2023/05/17 02:33:39;;;;;;;4.67;2.60;;;17.20;99.90;;;;;;4987636;28;20212;-82
2023/05/17 02:36:06;;;;;;;11.90;3.23;;;17.20;99.90;;;;;;5002949;28;20189;-82
2023/05/17 02:38:33;;;;;;;4.20;2.70;;;17.30;99.90;;;;;;4984761;28;20913;-80
2023/05/17 02:41:03;;;;;;;5.40;2.37;;;17.30;99.90;;;;;;4986496;28;20494;-82
2023/05/17 02:43:32;;;;;;;10.63;2.80;;;17.30;99.90;;;;;;4984911;28;20698;-81
2023/05/17 02:46:00;;;;;;;5.93;2.90;;;17.30;99.90;;;;;;5000717;28;20220;-89
2023/05/17 02:48:27;;;;;;;8.80;3.00;;;17.30;99.90;;;;;;5011438;28;20654;-89
2023/05/17 02:50:56;;;;;;;8.70;2.77;;;17.30;99.90;;;;;;4992053;28;20192;-81
2023/05/17 02:53:26;;;;;;;5.07;2.57;;;17.20;99.90;;;;;;4991133;28;20200;-87
2023/05/17 02:55:56;;;;;;;6.07;2.50;;;17.30;99.90;;;;;;4994187;28;20644;-87
2023/05/17 02:58:30;;;;;;;7.87;2.77;;;17.20;99.90;;;;;;5006890;28;20203;-80
2023/05/17 03:00:57;;;;;;;7.30;3.17;;;17.20;99.90;;;;;;4982192;28;20916;-88
2023/05/17 03:03:26;;;;;;;4.10;2.47;;;17.20;99.90;;;;;;5006309;28;20195;-81
2023/05/17 03:05:54;;;;;;;5.60;2.80;;;17.30;99.90;;;;;;5000904;28;20234;-80
2023/05/17 03:08:24;;;;;;;4.87;2.50;;;17.20;99.90;;;;;;4986707;28;20189;-80
2023/05/17 03:10:56;;;;;;;4.60;2.33;;;17.20;99.90;;;;;;5000043;28;20185;-79
2023/05/17 03:13:25;;;;;;;3.63;2.30;;;17.30;99.90;;;;;;4984737;28;20929;-80
2023/05/17 03:15:52;;;;;;;5.77;2.50;;;17.30;99.90;;;;;;4991189;28;20263;-87
2023/05/17 03:18:22;;;;;;;5.57;2.80;;;17.30;99.90;;;;;;4973558;28;20573;-80
2023/05/17 03:20:52;;;;;;;4.57;2.60;;;17.30;99.90;;;;;;5003803;28;21237;-80
2023/05/17 03:23:21;;;;;;;9.50;2.30;;;17.40;99.90;;;;;;4968740;28;20332;-79
2023/05/17 03:25:48;;;;;;;6.43;2.77;;;17.30;99.90;;;;;;4969767;28;20706;-86
2023/05/17 03:28:18;;;;;;;4.50;2.50;;;17.40;99.90;;;;;;5002593;28;20197;-80
2023/05/17 03:30:46;;;;;;;6.97;2.80;;;17.40;99.90;;;;;;5002926;28;20311;-87
2023/05/17 03:33:14;;;;;;;7.57;2.63;;;17.40;99.90;;;;;;5009129;28;20231;-80
2023/05/17 03:35:47;;;;;;;5.37;3.10;;;17.40;99.90;;;;;;4986186;28;20196;-79
2023/05/17 03:38:13;;;;;;;8.90;2.87;;;17.30;99.90;;;;;;4969937;28;20193;-85
2023/05/17 03:40:45;;;;;;;7.27;2.53;;;17.30;99.90;;;;;;4989390;28;20911;-80
2023/05/17 03:43:12;;;;;;;5.77;2.63;;;17.30;99.90;;;;;;4982716;28;20197;-80
2023/05/17 03:45:44;;;;;;;5.93;2.50;;;17.30;99.90;;;;;;5002810;28;20208;-79
2023/05/17 03:48:13;;;;;;;6.37;2.63;;;17.40;99.90;;;;;;4972317;28;20193;-79
2023/05/17 03:50:44;;;;;;;4.70;2.50;;;17.40;99.90;;;;;;4971309;28;20279;-79
2023/05/17 03:53:12;;;;;;;4.97;2.57;;;17.40;99.90;;;;;;5002361;28;20205;-85
2023/05/17 03:55:41;;;;;;;8.10;2.53;;;17.50;99.90;;;;;;4975304;28;20197;-81
2023/05/17 03:58:07;;;;;;;6.43;2.90;;;17.50;99.90;;;;;;5005081;28;20189;-87
2023/05/17 04:00:35;;;;;;;4.60;2.87;;;17.50;99.90;;;;;;4990857;28;20203;-87
2023/05/17 04:03:06;;;;;;;9.73;3.23;;;17.60;99.90;;;;;;4988085;28;20177;-81
2023/05/17 04:05:33;;;;;;;5.27;2.63;;;17.60;99.90;;;;;;4975420;28;20211;-87
2023/05/17 04:08:02;;;;;;;5.47;2.47;;;17.70;99.90;;;;;;4982763;28;20185;-81
2023/05/17 04:10:34;;;;;;;4.97;2.70;;;17.80;99.90;;;;;;4998264;28;20237;-87
2023/05/17 04:13:02;;;;;;;11.40;2.50;;;17.80;99.90;;;;;;4983766;28;20177;-80
2023/05/17 04:15:31;;;;;;;6.97;3.07;;;17.80;99.90;;;;;;4998440;28;20196;-80
2023/05/17 04:17:58;;;;;;;6.80;2.70;;;17.90;99.90;;;;;;4995135;28;20920;-80
2023/05/17 04:20:25;;;;;;;5.47;2.63;;;18.00;99.90;;;;;;4986072;28;20712;-87
2023/05/17 04:22:52;;;;;;;4.37;2.60;;;18.10;99.90;;;;;;4972007;28;20232;-86
2023/05/17 04:25:19;;;;;;;7.10;2.53;;;18.20;99.90;;;;;;4984342;28;20212;-86
2023/05/17 04:27:47;;;;;;;7.93;3.13;;;18.30;99.90;;;;;;4999277;28;20192;-81
2023/05/17 04:30:15;;;;;;;6.73;2.93;;;18.40;99.90;;;;;;4996501;28;20185;-81
2023/05/17 04:32:44;;;;;;;6.80;2.80;;;18.50;99.90;;;;;;4963473;28;20884;-79
2023/05/17 04:35:12;;;;;;;7.30;3.00;;;18.50;99.90;;;;;;4999578;28;20193;-86
2023/05/17 04:37:42;;;;;;;6.43;3.13;;;18.60;99.90;;;;;;4994452;28;20193;-81
2023/05/17 04:40:11;;;;;;;8.33;2.70;;;18.60;99.90;;;;;;5000512;28;20647;-80
2023/05/17 04:42:38;;;;;;;5.20;2.87;;;18.70;99.90;;;;;;4996299;28;20193;-85
2023/05/17 04:45:17;;;;;;;7.33;2.77;;;18.70;99.90;;;;;;4998391;28;20201;-80
2023/05/17 04:47:44;;;;;;;8.63;3.10;;;18.80;99.90;;;;;;4985442;28;20672;-86
2023/05/17 04:50:17;;;;;;;5.43;2.80;;;18.80;99.90;;;;;;4994519;28;20539;-80
2023/05/17 04:52:47;;;;;;;7.63;2.50;;;19.00;99.90;;;;;;4984872;28;20170;-86
2023/05/17 04:55:17;;;;;;;6.93;3.00;;;19.00;99.90;;;;;;4981554;28;20193;-81
2023/05/17 04:57:44;;;;;;;6.53;3.00;;;19.00;99.90;;;;;;4984618;28;20227;-86
2023/05/17 05:00:14;;;;;;;7.37;2.57;;;19.10;99.90;;;;;;4995900;28;20250;-80
2023/05/17 05:02:47;;;;;;;5.47;2.60;;;19.10;99.90;;;;;;4981753;28;20207;-80
2023/05/17 05:05:14;;;;;;;8.10;3.00;;;19.20;99.90;;;;;;4982206;28;20205;-80
2023/05/17 05:07:42;;;;;;;5.20;2.47;;;19.20;99.90;;;;;;4982525;28;20196;-80
2023/05/17 05:10:12;;;;;;;6.50;3.00;;;19.30;99.90;;;;;;4980684;28;20268;-85
2023/05/17 05:12:41;;;;;;;6.10;3.53;;;19.30;99.90;;;;;;4984560;28;20188;-80
2023/05/17 05:15:12;;;;;;;10.90;3.93;;;19.40;99.90;;;;;;4981967;28;20180;-80
2023/05/17 05:17:39;;;;;;;4.87;2.77;;;19.40;99.90;;;;;;4979775;28;20185;-86
2023/05/17 05:20:07;;;;;;;5.43;2.87;;;19.50;99.90;;;;;;4983644;28;20181;-79
2023/05/17 05:22:40;;;;;;;5.80;2.90;;;19.60;99.90;;;;;;4978975;28;20208;-81
2023/05/17 05:25:07;;;;;;;4.57;2.90;;;19.70;99.90;;;;;;4981366;28;20804;-85
2023/05/17 05:27:37;;;;;;;5.73;2.93;;;19.80;99.90;;;;;;4982551;28;20244;-80
2023/05/17 05:30:07;;;;;;;8.70;3.47;;;19.80;99.90;;;;;;4994539;28;20280;-80
2023/05/17 05:32:36;;;;;;;8.03;2.83;;;19.80;99.90;;;;;;4998656;28;20184;-85
2023/05/17 05:35:04;;;;;;;7.87;3.33;;;19.90;99.90;;;;;;5002050;28;20664;-84
2023/05/17 05:37:31;;;;;;;4.77;2.90;;;20.00;99.90;;;;;;4988717;28;20625;-85
2023/05/17 05:40:04;;;;;;;4.57;2.97;;;20.10;99.90;;;;;;5004377;28;20193;-80
2023/05/17 05:42:30;;;;;;;5.47;3.10;;;20.10;99.90;;;;;;5004912;28;20189;-86
2023/05/17 05:45:01;;;;;;;9.30;2.93;;;20.20;99.90;;;;;;4998976;28;20205;-80
2023/05/17 05:47:28;;;;;;;8.43;2.60;;;20.30;99.90;;;;;;4984631;28;20721;-80
2023/05/17 05:49:54;;;;;;;5.60;2.73;;;20.30;99.90;;;;;;5000679;28;20188;-85
2023/05/17 05:52:25;;;;;;;5.90;2.80;;;20.40;99.90;;;;;;4973022;28;20524;-79
2023/05/17 05:54:52;;;;;;;3.80;2.40;;;20.40;99.90;;;;;;5004158;28;20193;-85
2023/05/17 05:57:21;;;;;;;5.27;3.00;;;20.50;99.90;;;;;;4990374;28;20190;-80
2023/05/17 05:59:50;;;;;;;4.07;2.77;;;20.60;99.90;;;;;;4998057;28;20194;-80
2023/05/17 06:02:25;;;;;;;7.10;2.90;;;20.60;99.90;;;;;;4983733;28;20220;-80
2023/05/17 06:04:51;;;;;;;9.53;2.83;;;20.60;99.90;;;;;;5004546;28;20228;-84
2023/05/17 06:07:22;;;;;;;8.30;3.07;;;20.70;99.90;;;;;;4984344;28;20189;-80
2023/05/17 06:09:51;;;;;;;7.73;3.10;;;20.70;99.90;;;;;;4989688;28;20211;-85
2023/05/17 06:12:18;;;;;;;5.83;3.10;;;20.80;99.90;;;;;;5000371;28;20197;-84
2023/05/17 06:14:51;;;;;;;10.50;2.90;;;20.90;99.90;;;;;;4986144;28;20194;-79
2023/05/17 06:17:20;;;;;;;6.67;3.10;;;21.00;99.90;;;;;;4998623;28;20280;-80
2023/05/17 06:19:48;;;;;;;8.80;3.50;;;21.10;99.90;;;;;;4984894;28;20284;-84
2023/05/17 06:22:15;;;;;;;3.57;2.80;;;21.20;99.90;;;;;;5004826;28;20197;-85
2023/05/17 06:24:47;;;;;;;6.47;3.00;;;21.20;99.90;;;;;;4985705;28;20212;-80
2023/05/17 06:27:15;;;;;;;5.33;2.97;;;21.30;99.90;;;;;;4997892;28;20220;-80
2023/05/17 06:29:41;;;;;;;8.30;3.13;;;21.40;99.90;;;;;;5000605;28;20238;-85
2023/05/17 06:32:10;;;;;;;12.93;3.13;;;21.50;99.90;;;;;;4983636;28;20197;-80
2023/05/17 06:34:40;;;;;;;5.07;2.70;;;21.50;99.90;;;;;;4979163;28;20220;-83
2023/05/17 06:37:08;;;;;;;7.73;2.93;;;21.70;99.90;;;;;;5001148;28;21143;-80
2023/05/17 06:39:35;;;;;;;6.00;2.97;;;21.80;99.90;;;;;;4961762;28;20824;-80
2023/05/17 06:42:02;;;;;;;6.23;3.13;;;21.80;99.90;;;;;;4985915;28;20195;-84
2023/05/17 06:44:32;;;;;;;8.00;2.90;;;21.90;99.90;;;;;;5001240;28;20200;-78
2023/05/17 06:46:59;;;;;;;8.00;3.13;;;21.90;99.90;;;;;;4997053;28;20193;-84
2023/05/17 06:49:26;;;;;;;8.23;3.37;;;22.00;99.90;;;;;;4998367;28;20193;-85
2023/05/17 06:51:54;;;;;;;7.47;2.90;;;22.10;99.90;;;;;;4999664;28;20182;-86
2023/05/17 06:54:20;;;;;;;6.23;3.40;;;22.20;99.90;;;;;;4986553;28;22794;-85
2023/05/17 06:56:47;;;;;;;5.60;3.03;;;22.30;99.90;;;;;;4984935;28;20193;-84
2023/05/17 06:59:13;;;;;;;9.80;2.97;;;22.40;99.90;;;;;;5003192;28;20225;-83
2023/05/17 07:01:39;;;;;;;7.57;2.78;;;22.50;99.90;;;;;;4982952;28;21486;-84
2023/05/17 07:04:06;;;;;;;10.23;2.93;;;22.60;99.90;;;;;;4999673;28;20189;-84
2023/05/17 07:06:33;;;;;;;7.60;2.80;;;22.70;99.90;;;;;;4985611;28;20283;-83
2023/05/17 07:08:59;;;;;;;9.60;3.30;;;22.70;99.90;;;;;;4985573;28;20702;-84
2023/05/17 07:11:25;;;;;;;5.28;2.60;;;22.80;99.90;;;;;;4999423;28;20390;-82
2023/05/17 07:13:52;;;;;;;5.20;3.00;;;22.90;99.90;;;;;;5000852;28;20647;-88
2023/05/17 07:16:18;;;;;;;8.20;3.08;;;23.00;99.90;;;;;;4963639;28;20276;-84
2023/05/17 07:18:44;;;;;;;5.25;2.72;;;23.10;99.90;;;;;;4982467;28;20189;-84
2023/05/17 07:21:14;;;;;;;4.63;2.50;;;23.10;99.90;;;;;;4968987;28;20276;-80
2023/05/17 07:23:40;;;;;;;5.20;2.67;;;23.20;99.90;;;;;;4997143;28;20243;-85
2023/05/17 07:26:12;;;;;;;10.55;3.15;;;23.30;99.90;;;;;;5001924;28;20228;-80
2023/05/17 07:28:38;;;;;;;9.25;2.97;;;23.30;99.90;;;;;;4984469;28;20229;-80
2023/05/17 07:31:09;;;;;;;6.45;2.45;;;23.30;99.90;;;;;;4987325;28;20203;-78
2023/05/17 07:33:38;;;;;;;8.40;2.83;;;23.30;99.90;;;;;;5001458;28;20678;-80
2023/05/17 07:36:05;;;;;;;8.45;3.08;;;23.40;99.90;;;;;;4970538;28;20197;-84
2023/05/17 07:38:34;;;;;;;8.82;2.88;;;23.40;99.90;;;;;;4978336;28;20189;-79
2023/05/17 07:41:08;;;;;;;10.60;2.85;;;23.60;99.90;;;;;;4995764;28;20187;-83
2023/05/17 07:43:37;;;;;;;9.55;3.30;;;23.90;99.90;;;;;;4982073;28;20200;-80
2023/05/17 07:46:05;;;;;;;7.63;3.22;;;24.00;99.90;;;;;;4984556;28;20219;-80
2023/05/17 07:48:32;;;;;;;4.97;2.47;;;24.00;99.90;;;;;;5000491;28;20364;-80
2023/05/17 07:51:00;;;;;;;8.20;2.97;;;24.10;99.90;;;;;;5005662;28;20184;-78
2023/05/17 07:53:27;;;;;;;8.05;3.10;;;24.10;99.90;;;;;;5004330;28;20185;-84
2023/05/17 07:55:59;;;;;;;7.18;2.95;;;24.10;99.90;;;;;;5001216;28;20189;-80
2023/05/17 07:58:26;;;;;;;6.55;2.42;;;24.10;99.90;;;;;;4985389;28;20212;-87
2023/05/17 08:00:53;;;;;;;7.10;2.90;;;24.20;99.90;;;;;;4987614;28;20592;-79
2023/05/17 08:03:22;;;;;;;7.65;2.83;;;24.30;99.90;;;;;;5004599;28;20190;-87
2023/05/17 08:05:51;;;;;;;5.65;2.70;;;24.30;99.90;;;;;;4971029;28;20213;-79
2023/05/17 08:08:20;;;;;;;8.15;2.72;;;24.50;99.90;;;;;;4995628;28;20287;-82
2023/05/17 08:10:46;;;;;;;7.40;2.70;;;24.60;99.90;;;;;;4987582;28;20193;-85
2023/05/17 08:13:13;;;;;;;7.57;2.67;;;24.80;99.90;;;;;;5006234;28;20199;-88
2023/05/17 08:15:44;;;;;;;11.07;3.17;;;24.90;99.90;;;;;;5006604;28;20199;-80
2023/05/17 08:18:12;;;;;;;6.70;2.67;;;24.90;99.90;;;;;;5006081;28;20271;-79
2023/05/17 08:20:40;;;;;;;5.50;2.83;;;25.00;99.90;;;;;;5002492;28;20194;-80
2023/05/17 08:23:07;;;;;;;4.78;2.67;;;25.10;99.90;;;;;;5007400;28;20199;-82
2023/05/17 08:25:33;;;;;;;6.70;3.00;;;25.20;99.90;;;;;;4993050;28;20216;-83
2023/05/17 08:27:59;;;;;;;5.00;2.65;;;25.30;99.90;;;;;;5012290;28;20185;-84
2023/05/17 08:30:25;;;;;;;4.55;2.70;;;25.40;99.90;;;;;;4971085;28;20186;-80
2023/05/17 08:32:55;;;;;;;5.10;2.55;;;25.50;99.90;;;;;;5002560;28;20189;-84
2023/05/17 08:35:24;;;;;;;6.07;2.33;;;25.70;99.90;;;;;;5002676;28;20188;-79
2023/05/17 08:37:53;;;;;;;6.72;3.00;;;25.90;99.90;;;;;;4994191;28;20192;-82
2023/05/17 08:40:21;;;;;;;10.57;2.90;;;26.00;99.90;;;;;;4969513;28;20228;-79
2023/05/17 08:42:51;;;;;;;7.38;2.80;;;26.00;99.90;;;;;;4987690;28;20228;-81
2023/05/17 08:45:17;;;;;;;5.90;2.70;;;26.00;99.90;;;;;;5001164;28;20212;-83
2023/05/17 08:47:46;;;;;;;5.78;2.88;;;26.20;99.90;;;;;;4966860;28;20606;-84
2023/05/17 08:50:16;;;;;;;8.30;2.53;;;26.20;99.90;;;;;;4981527;28;20696;-79
2023/05/17 08:52:50;;;;;;;5.72;2.53;;;26.30;99.90;;;;;;4981955;28;20276;-87
2023/05/17 08:55:24;;;;;;;6.85;3.05;;;26.30;99.90;;;;;;5000784;28;20714;-80
2023/05/17 08:57:53;;;;;;;9.10;2.67;;;26.30;99.90;;;;;;4986506;28;20249;-81
2023/05/17 09:00:24;;;;;;;10.52;2.55;;;26.40;99.70;;;;;;4996784;28;20197;-78
2023/05/17 09:02:51;;;;;;;8.85;2.90;;;26.40;99.80;;;;;;4972314;28;20270;-90
2023/05/17 09:05:17;;;;;;;9.10;2.70;;;26.40;99.90;;;;;;4981137;28;20251;-81
2023/05/17 09:07:48;;;;;;;4.68;2.08;;;26.60;99.90;;;;;;5002691;28;20213;-83
2023/05/17 09:10:18;;;;;;;8.63;2.72;;;26.70;99.50;;;;;;4987796;28;20639;-77
2023/05/17 09:12:47;;;;;;;5.38;2.28;;;26.70;99.20;;;;;;4969518;28;20208;-84
2023/05/17 09:15:22;;;;;;;13.27;2.95;;;26.80;99.00;;;;;;4993773;28;20227;-77
2023/05/17 09:17:54;;;;;;;7.25;2.63;;;27.00;99.00;;;;;;4998620;28;20220;-80
2023/05/17 09:20:33;;;;;;;5.32;2.55;;;27.00;98.90;;;;;;4985876;28;20205;-80
2023/05/17 09:23:05;;;;;;;8.43;2.70;;;27.10;98.80;;;;;;4998677;28;20358;-79
2023/05/17 09:25:32;;;;;;;4.57;2.30;;;27.20;98.60;;;;;;5010271;28;20212;-81
2023/05/17 09:28:14;;;;;;;11.45;2.67;;;27.40;98.00;;;;;;4986386;28;20208;-77
2023/05/17 09:30:41;;;;;;;8.10;2.63;;;27.40;98.10;;;;;;4998658;28;20188;-87
2023/05/17 09:33:11;;;;;;;6.00;2.40;;;27.50;97.80;;;;;;4988270;28;20894;-86
2023/05/17 09:35:38;;;;;;;11.70;2.80;;;27.60;98.00;;;;;;4983859;28;20358;-76
2023/05/17 09:38:12;;;;;;;9.88;2.47;;;27.60;97.60;;;;;;4984772;28;20320;-85
2023/05/17 09:40:44;;;;;;;7.40;2.35;;;27.70;98.00;;;;;;5004184;28;20275;-81
2023/05/17 09:43:25;;;;;;;5.43;2.58;;;27.80;97.30;;;;;;5000379;28;20189;-81
2023/05/17 09:45:58;;;;;;;9.70;2.58;;;27.90;97.30;;;;;;4982637;28;20224;-84
2023/05/17 09:48:29;;;;;;;12.82;2.80;;;28.10;97.80;;;;;;5001834;28;20188;-78
2023/05/17 09:50:55;;;;;;;4.45;2.40;;;28.20;97.00;;;;;;4990649;28;20185;-78
2023/05/17 09:53:41;;;;;;;8.20;2.55;;;28.30;96.80;;;;;;4981043;28;20277;-76
2023/05/17 09:56:09;;;;;;;5.55;2.58;;;28.30;96.70;;;;;;5002382;28;20268;-88
2023/05/17 09:58:37;;;;;;;6.13;2.63;;;28.30;96.80;;;;;;4989315;28;20242;-83
2023/05/17 10:01:10;;;;;;;8.95;2.40;;;28.40;96.40;;;;;;5000895;28;20185;-83
2023/05/17 10:03:38;;;;;;;4.80;2.50;;;28.40;96.30;;;;;;4985308;28;20199;-84
2023/05/17 10:06:11;;;;;;;7.35;2.65;;;28.40;96.90;;;;;;4970458;28;20228;-83
2023/05/17 10:09:02;;;;;;;4.32;2.38;;;28.50;96.40;;;;;;4978148;28;20640;-79
2023/05/17 10:11:34;;;;;;;7.57;2.75;;;28.60;96.40;;;;;;4978405;28;20197;-80
2023/05/17 10:14:26;;;;;;;8.02;2.60;;;28.60;96.00;;;;;;4966545;28;20201;-84
2023/05/17 10:16:55;;;;;;;5.15;2.00;;;28.70;96.10;;;;;;4965530;28;20769;-79
2023/05/17 10:19:24;;;;;;;5.57;2.30;;;28.70;95.90;;;;;;4949136;28;20205;-80
2023/05/17 10:21:52;;;;;;;6.43;2.53;;;28.70;95.90;;;;;;4967792;28;20193;-80
2023/05/17 10:24:20;;;;;;;6.00;2.30;;;28.70;96.00;;;;;;4944633;28;20682;-81
2023/05/17 10:26:51;;;;;;;5.43;2.22;;;28.70;95.60;;;;;;4965345;28;20209;-85
2023/05/17 10:29:19;;;;;;;5.15;2.58;;;28.60;95.60;;;;;;4942035;28;20198;-79
2023/05/17 10:31:49;;;;;;;8.30;2.70;;;28.60;95.30;;;;;;4960423;28;20269;-80
2023/05/17 10:34:17;;;;;;;8.43;2.58;;;28.60;95.60;;;;;;4978140;28;20216;-82
2023/05/17 10:36:45;;;;;;;4.25;2.33;;;28.60;96.30;;;;;;4962617;28;20189;-77
2023/05/17 10:39:15;;;;;;;11.45;2.17;;;28.60;95.00;;;;;;4979212;28;20193;-77
2023/05/17 10:41:48;;;;;;;4.35;2.17;;;28.60;95.40;;;;;;4990719;28;21430;-77
2023/05/17 10:44:17;;;;;;;5.43;2.35;;;28.60;95.10;;;;;;4963367;28;20192;-87
2023/05/17 10:46:56;;;;;;;7.57;2.05;;;28.50;95.20;;;;;;4997340;28;20189;-81
2023/05/17 10:49:30;;;;;;;9.00;2.15;;;28.40;93.50;;;;;;5000974;28;20287;-78
2023/05/17 10:52:09;;;;;;;4.40;2.50;;;28.20;93.00;;;;;;4997073;28;20764;-77
2023/05/17 10:54:42;;;;;;;3.33;2.00;;;28.00;93.80;;;;;;5001659;28;20185;-77
2023/05/17 10:57:37;;;;;;;6.85;2.33;;;27.80;94.50;;;;;;4997642;28;20283;-77
2023/05/17 11:00:06;;;;;;;6.15;2.75;;;27.70;97.40;;;;;;4976328;28;20265;-82
2023/05/17 11:02:43;;;;;;;6.30;2.50;;;27.70;99.40;;;;;;4998399;28;20250;-77
2023/05/17 11:05:25;;;;;;;5.85;1.98;;;27.70;99.50;;;;;;4999771;28;20683;-78
2023/05/17 11:08:10;;;;;;;4.95;2.28;;;27.60;97.50;;;;;;4987462;28;20192;-78
2023/05/17 11:11:19;;;;;;;5.85;2.40;;;27.60;94.90;;;;;;4986011;28;20189;-80
2023/05/17 11:13:56;;;;;;;5.72;2.33;;;27.40;97.80;;;;;;5001478;28;20185;-80
2023/05/17 11:16:36;;;;;;;5.53;2.63;;;27.50;97.50;;;;;;4995900;28;20205;-76
2023/05/17 11:19:09;;;;;;;5.97;2.30;;;27.40;98.50;;;;;;5002620;28;20204;-76
2023/05/17 11:21:47;;;;;;;8.85;2.53;;;27.50;97.10;;;;;;4982216;28;20192;-81
2023/05/17 11:24:30;;;;;;;4.25;2.00;;;27.50;96.40;;;;;;4999226;28;20188;-80
2023/05/17 11:26:59;;;;;;;9.52;2.47;;;27.50;97.60;;;;;;4992739;28;20275;-79
2023/05/17 11:29:30;;;;;;;3.85;2.30;;;27.40;96.80;;;;;;5002859;28;20274;-79
2023/05/17 11:32:09;;;;;;;3.80;2.03;;;27.50;97.40;;;;;;5005927;28;20570;-81
2023/05/17 11:34:38;;;;;;;4.85;2.20;;;27.50;96.90;;;;;;5004797;28;20196;-78
2023/05/17 11:37:11;;;;;;;6.85;2.53;;;27.50;96.80;;;;;;4989219;28;20185;-79
2023/05/17 11:40:05;;;;;;;7.57;2.05;;;27.50;96.80;;;;;;4979296;28;20272;-81
2023/05/17 11:42:40;;;;;;;5.25;2.20;;;27.60;97.30;;;;;;5000313;28;20189;-78
2023/05/17 11:45:09;;;;;;;5.88;2.20;;;27.50;96.20;;;;;;4999608;28;20204;-83
2023/05/17 11:47:39;;;;;;;4.20;2.30;;;27.50;96.30;;;;;;4987202;28;20571;-80
2023/05/17 11:50:07;;;;;;;6.78;2.13;;;27.50;96.30;;;;;;4975135;28;20189;-79
2023/05/17 11:52:34;;;;;;;4.88;2.42;;;27.50;97.50;;;;;;4990907;28;20208;-82
2023/05/17 11:55:05;;;;;;;6.15;2.17;;;27.50;97.50;;;;;;5004796;28;20185;-78
2023/05/17 11:57:32;;;;;;;6.75;2.20;;;27.60;97.90;;;;;;4976434;28;20189;-79
2023/05/17 12:00:00;;;;;;;6.13;2.38;;;27.60;97.10;;;;;;5002561;28;20192;-83
2023/05/17 12:02:35;;;;;;;6.60;2.25;;;27.60;97.10;;;;;;5011516;28;20247;-86
2023/05/17 12:05:09;;;;;;;5.13;2.05;;;27.70;96.90;;;;;;4989267;28;20287;-79
2023/05/17 12:07:36;;;;;;;5.07;2.53;;;27.70;97.60;;;;;;4985619;28;20190;-80
2023/05/17 12:10:05;;;;;;;6.07;2.15;;;27.70;96.90;;;;;;4975547;28;20188;-78
2023/05/17 12:12:33;;;;;;;6.40;2.38;;;27.70;98.00;;;;;;4990635;28;20276;-84
2023/05/17 12:15:02;;;;;;;7.10;2.58;;;27.70;97.80;;;;;;4972069;28;20667;-79
2023/05/17 12:17:43;;;;;;;12.27;2.60;;;27.80;98.20;;;;;;4968996;28;20223;-79
2023/05/17 12:20:10;;;;;;;5.90;2.40;;;27.70;99.30;;;;;;4984744;28;20197;-80
2023/05/17 12:22:56;;;;;;;4.03;2.60;;;27.60;99.90;;;;;;5007835;28;20215;-78
2023/05/17 12:25:26;;;;;;;4.63;2.70;;;27.50;99.90;;;;;;5000493;28;20216;-84
2023/05/17 12:28:15;;;;;;;5.13;2.65;;;27.50;99.90;;;;;;5011248;28;20262;-83
2023/05/17 12:30:45;;;;;;;7.00;2.83;;;27.40;99.90;;;;;;4987146;28;20224;-85
2023/05/17 12:33:13;;;;;;;7.13;2.80;;;27.20;99.90;;;;;;4982088;28;20204;-81
2023/05/17 12:35:41;;;;;;;5.80;2.60;;;27.20;99.90;;;;;;4982117;28;20197;-82
2023/05/17 12:38:08;;;;;;;7.10;2.72;;;27.10;99.90;;;;;;4984162;28;20201;-83
2023/05/17 12:40:39;;;;;;;6.22;3.03;;;27.10;99.90;;;;;;4982330;28;20193;-82
2023/05/17 12:43:09;;;;;;;11.00;2.95;;;27.10;99.90;;;;;;5002466;28;20905;-86
2023/05/17 12:45:41;;;;;;;8.10;2.60;;;27.20;99.90;;;;;;5000418;28;20274;-83
2023/05/17 12:48:07;;;;;;;10.45;2.58;;;27.20;99.90;;;;;;4964536;28;20302;-82
2023/05/17 12:50:45;;;;;;;4.38;2.90;;;27.10;99.90;;;;;;4997838;28;20185;-77
2023/05/17 12:53:11;;;;;;;9.82;2.88;;;27.20;99.90;;;;;;4976483;28;20193;-86
2023/05/17 12:55:40;;;;;;;6.45;2.80;;;27.10;99.90;;;;;;4983239;28;20193;-89
2023/05/17 12:58:11;;;;;;;5.18;3.20;;;27.10;99.90;;;;;;4978999;28;20196;-81
2023/05/17 13:00:40;;;;;;;5.80;3.00;;;27.10;99.90;;;;;;4997899;28;20197;-79
2023/05/17 13:03:11;;;;;;;4.75;2.60;;;27.10;99.90;;;;;;4985008;28;20792;-79